sensor_id;sensor_type;location;lat;lon;timestamp;P1;durP1;ratioP1;P2;durP2;ratioP2
65684;SDS011;52405;50.844;-1.062;2022-11-18T00:01:44;6.20;;;1.80;;
65684;SDS011;52405;50.844;-1.062;2022-11-18T00:04:10;4.60;;;0.98;;
65684;SDS011;52405;50.844;-1.062;2022-11-18T00:06:36;4.25;;;1.27;;
65684;SDS011;52405;50.844;-1.062;2022-11-18T00:09:01;5.50;;;1.38;;
65684;SDS011;52405;50.844;-1.062;2022-11-18T00:11:27;9.18;;;2.10;;
65684;SDS011;52405;50.844;-1.062;2022-11-18T00:14:16;5.43;;;1.50;;
65684;SDS011;52405;50.844;-1.062;2022-11-18T00:16:48;2.92;;;1.30;;
65684;SDS011;52405;50.844;-1.062;2022-11-18T00:19:13;6.22;;;1.75;;
65684;SDS011;52405;50.844;-1.062;2022-11-18T00:21:39;4.85;;;1.05;;
65684;SDS011;52405;50.844;-1.062;2022-11-18T00:24:04;6.55;;;1.40;;
65684;SDS011;52405;50.844;-1.062;2022-11-18T00:26:30;4.30;;;1.15;;
65684;SDS011;52405;50.844;-1.062;2022-11-18T00:28:55;6.15;;;1.25;;
65684;SDS011;52405;50.844;-1.062;2022-11-18T00:31:21;4.95;;;1.50;;
65684;SDS011;52405;50.844;-1.062;2022-11-18T00:33:46;7.07;;;1.20;;
65684;SDS011;52405;50.844;-1.062;2022-11-18T00:36:12;9.15;;;1.42;;
65684;SDS011;52405;50.844;-1.062;2022-11-18T00:38:38;8.32;;;1.38;;
65684;SDS011;52405;50.844;-1.062;2022-11-18T00:41:08;7.80;;;1.50;;
65684;SDS011;52405;50.844;-1.062;2022-11-18T00:43:38;6.57;;;2.45;;
65684;SDS011;52405;50.844;-1.062;2022-11-18T00:46:05;7.05;;;1.00;;
65684;SDS011;52405;50.844;-1.062;2022-11-18T00:48:32;7.85;;;1.50;;
65684;SDS011;52405;50.844;-1.062;2022-11-18T00:51:04;6.70;;;1.83;;
65684;SDS011;52405;50.844;-1.062;2022-11-18T00:53:35;6.47;;;1.98;;
65684;SDS011;52405;50.844;-1.062;2022-11-18T00:56:01;2.65;;;1.38;;
65684;SDS011;52405;50.844;-1.062;2022-11-18T00:58:26;8.07;;;1.13;;
65684;SDS011;52405;50.844;-1.062;2022-11-18T01:00:52;2.83;;;1.40;;
65684;SDS011;52405;50.844;-1.062;2022-11-18T01:03:18;8.07;;;1.50;;
65684;SDS011;52405;50.844;-1.062;2022-11-18T01:05:44;3.40;;;0.90;;
65684;SDS011;52405;50.844;-1.062;2022-11-18T01:08:10;4.05;;;1.15;;
65684;SDS011;52405;50.844;-1.062;2022-11-18T01:10:37;6.88;;;2.00;;
65684;SDS011;52405;50.844;-1.062;2022-11-18T01:13:04;3.78;;;0.98;;
65684;SDS011;52405;50.844;-1.062;2022-11-18T01:18:10;3.67;;;1.05;;
65684;SDS011;52405;50.844;-1.062;2022-11-18T01:20:35;2.63;;;0.85;;
65684;SDS011;52405;50.844;-1.062;2022-11-18T01:23:02;4.68;;;0.98;;
65684;SDS011;52405;50.844;-1.062;2022-11-18T01:25:28;9.55;;;1.98;;
65684;SDS011;52405;50.844;-1.062;2022-11-18T01:27:54;3.55;;;1.35;;
65684;SDS011;52405;50.844;-1.062;2022-11-18T01:30:20;5.15;;;1.83;;
65684;SDS011;52405;50.844;-1.062;2022-11-18T01:32:45;3.67;;;0.75;;
65684;SDS011;52405;50.844;-1.062;2022-11-18T01:35:11;12.48;;;2.75;;
65684;SDS011;52405;50.844;-1.062;2022-11-18T01:37:37;5.75;;;1.85;;
65684;SDS011;52405;50.844;-1.062;2022-11-18T01:40:04;7.97;;;1.38;;
65684;SDS011;52405;50.844;-1.062;2022-11-18T01:42:30;5.10;;;1.77;;
65684;SDS011;52405;50.844;-1.062;2022-11-18T01:47:21;2.58;;;0.77;;
65684;SDS011;52405;50.844;-1.062;2022-11-18T01:49:49;3.67;;;1.00;;
65684;SDS011;52405;50.844;-1.062;2022-11-18T01:52:15;5.43;;;2.75;;
65684;SDS011;52405;50.844;-1.062;2022-11-18T01:54:41;10.13;;;1.42;;
65684;SDS011;52405;50.844;-1.062;2022-11-18T01:57:13;2.78;;;1.40;;
65684;SDS011;52405;50.844;-1.062;2022-11-18T01:59:43;4.60;;;1.15;;
65684;SDS011;52405;50.844;-1.062;2022-11-18T02:02:13;3.78;;;1.20;;
65684;SDS011;52405;50.844;-1.062;2022-11-18T02:04:39;5.50;;;0.68;;
65684;SDS011;52405;50.844;-1.062;2022-11-18T02:07:08;3.58;;;0.80;;
65684;SDS011;52405;50.844;-1.062;2022-11-18T02:09:35;2.28;;;1.00;;
65684;SDS011;52405;50.844;-1.062;2022-11-18T02:12:02;3.55;;;1.23;;
65684;SDS011;52405;50.844;-1.062;2022-11-18T02:14:29;3.60;;;0.88;;
65684;SDS011;52405;50.844;-1.062;2022-11-18T02:33:46;5.07;;;0.95;;
65684;SDS011;52405;50.844;-1.062;2022-11-18T02:36:24;7.85;;;1.00;;
65684;SDS011;52405;50.844;-1.062;2022-11-18T02:38:58;2.85;;;0.85;;
65684;SDS011;52405;50.844;-1.062;2022-11-18T02:41:29;6.85;;;1.52;;
65684;SDS011;52405;50.844;-1.062;2022-11-18T02:43:58;6.25;;;0.93;;
65684;SDS011;52405;50.844;-1.062;2022-11-18T02:46:33;4.50;;;0.82;;
65684;SDS011;52405;50.844;-1.062;2022-11-18T02:49:03;5.38;;;1.02;;
65684;SDS011;52405;50.844;-1.062;2022-11-18T02:51:34;4.82;;;1.00;;
65684;SDS011;52405;50.844;-1.062;2022-11-18T02:54:02;6.47;;;1.15;;
65684;SDS011;52405;50.844;-1.062;2022-11-18T02:56:31;7.60;;;0.98;;
65684;SDS011;52405;50.844;-1.062;2022-11-18T02:58:58;3.50;;;1.08;;
65684;SDS011;52405;50.844;-1.062;2022-11-18T03:01:25;10.90;;;0.70;;
65684;SDS011;52405;50.844;-1.062;2022-11-18T03:03:53;2.95;;;0.80;;
65684;SDS011;52405;50.844;-1.062;2022-11-18T03:17:59;4.32;;;1.05;;
65684;SDS011;52405;50.844;-1.062;2022-11-18T03:20:36;4.47;;;0.68;;
65684;SDS011;52405;50.844;-1.062;2022-11-18T03:28:33;4.57;;;1.20;;
65684;SDS011;52405;50.844;-1.062;2022-11-18T03:31:23;3.38;;;1.08;;
65684;SDS011;52405;50.844;-1.062;2022-11-18T03:34:05;2.75;;;0.80;;
65684;SDS011;52405;50.844;-1.062;2022-11-18T03:36:36;5.38;;;2.05;;
65684;SDS011;52405;50.844;-1.062;2022-11-18T03:39:06;2.83;;;0.80;;
65684;SDS011;52405;50.844;-1.062;2022-11-18T03:41:38;5.13;;;1.15;;
65684;SDS011;52405;50.844;-1.062;2022-11-18T03:44:10;6.35;;;1.17;;
65684;SDS011;52405;50.844;-1.062;2022-11-18T03:49:10;4.90;;;0.82;;
65684;SDS011;52405;50.844;-1.062;2022-11-18T03:51:42;9.20;;;1.10;;
65684;SDS011;52405;50.844;-1.062;2022-11-18T03:54:16;5.10;;;0.90;;
65684;SDS011;52405;50.844;-1.062;2022-11-18T03:56:51;4.22;;;1.52;;
65684;SDS011;52405;50.844;-1.062;2022-11-18T03:59:28;7.60;;;1.83;;
65684;SDS011;52405;50.844;-1.062;2022-11-18T04:01:57;7.15;;;0.90;;
65684;SDS011;52405;50.844;-1.062;2022-11-18T04:04:28;3.40;;;0.80;;
65684;SDS011;52405;50.844;-1.062;2022-11-18T04:07:08;12.30;;;3.67;;
65684;SDS011;52405;50.844;-1.062;2022-11-18T04:09:55;7.28;;;1.10;;
65684;SDS011;52405;50.844;-1.062;2022-11-18T04:12:24;6.05;;;1.10;;
65684;SDS011;52405;50.844;-1.062;2022-11-18T04:14:53;6.95;;;1.20;;
65684;SDS011;52405;50.844;-1.062;2022-11-18T04:17:20;7.22;;;1.00;;
65684;SDS011;52405;50.844;-1.062;2022-11-18T04:19:48;6.65;;;1.80;;
65684;SDS011;52405;50.844;-1.062;2022-11-18T04:22:14;4.68;;;1.00;;
65684;SDS011;52405;50.844;-1.062;2022-11-18T04:24:40;4.30;;;1.50;;
65684;SDS011;52405;50.844;-1.062;2022-11-18T04:27:05;12.48;;;2.42;;
65684;SDS011;52405;50.844;-1.062;2022-11-18T04:29:32;6.53;;;1.17;;
65684;SDS011;52405;50.844;-1.062;2022-11-18T04:31:58;5.25;;;1.27;;
65684;SDS011;52405;50.844;-1.062;2022-11-18T04:34:25;6.78;;;1.35;;
65684;SDS011;52405;50.844;-1.062;2022-11-18T04:36:51;6.75;;;1.35;;
65684;SDS011;52405;50.844;-1.062;2022-11-18T04:39:17;10.25;;;2.28;;
65684;SDS011;52405;50.844;-1.062;2022-11-18T04:41:43;3.85;;;1.73;;
65684;SDS011;52405;50.844;-1.062;2022-11-18T04:44:25;2.75;;;1.40;;
65684;SDS011;52405;50.844;-1.062;2022-11-18T04:46:56;5.93;;;1.20;;
65684;SDS011;52405;50.844;-1.062;2022-11-18T04:49:23;4.00;;;1.70;;
65684;SDS011;52405;50.844;-1.062;2022-11-18T04:51:49;10.90;;;2.10;;
65684;SDS011;52405;50.844;-1.062;2022-11-18T04:54:16;9.55;;;2.13;;
65684;SDS011;52405;50.844;-1.062;2022-11-18T04:56:42;6.65;;;2.03;;
65684;SDS011;52405;50.844;-1.062;2022-11-18T04:59:08;10.73;;;1.83;;
65684;SDS011;52405;50.844;-1.062;2022-11-18T05:01:35;8.43;;;1.55;;
65684;SDS011;52405;50.844;-1.062;2022-11-18T05:04:01;7.22;;;1.80;;
65684;SDS011;52405;50.844;-1.062;2022-11-18T05:06:28;14.77;;;3.03;;
65684;SDS011;52405;50.844;-1.062;2022-11-18T05:08:54;6.38;;;1.73;;
65684;SDS011;52405;50.844;-1.062;2022-11-18T05:11:19;7.10;;;1.40;;
65684;SDS011;52405;50.844;-1.062;2022-11-18T05:14:03;11.68;;;1.70;;
65684;SDS011;52405;50.844;-1.062;2022-11-18T05:16:29;10.40;;;1.70;;
65684;SDS011;52405;50.844;-1.062;2022-11-18T05:18:54;4.85;;;1.75;;
65684;SDS011;52405;50.844;-1.062;2022-11-18T05:21:20;9.70;;;1.63;;
65684;SDS011;52405;50.844;-1.062;2022-11-18T05:23:46;4.30;;;1.25;;
65684;SDS011;52405;50.844;-1.062;2022-11-18T05:26:11;6.43;;;1.60;;
65684;SDS011;52405;50.844;-1.062;2022-11-18T05:28:37;8.60;;;1.55;;
65684;SDS011;52405;50.844;-1.062;2022-11-18T05:31:10;8.27;;;1.52;;
65684;SDS011;52405;50.844;-1.062;2022-11-18T05:33:37;7.43;;;1.35;;
65684;SDS011;52405;50.844;-1.062;2022-11-18T05:36:06;7.05;;;2.10;;
65684;SDS011;52405;50.844;-1.062;2022-11-18T05:38:33;8.43;;;1.55;;
65684;SDS011;52405;50.844;-1.062;2022-11-18T05:41:00;6.53;;;1.38;;
65684;SDS011;52405;50.844;-1.062;2022-11-18T05:43:26;7.22;;;1.17;;
65684;SDS011;52405;50.844;-1.062;2022-11-18T05:45:53;5.75;;;1.60;;
65684;SDS011;52405;50.844;-1.062;2022-11-18T05:48:18;4.47;;;1.38;;
65684;SDS011;52405;50.844;-1.062;2022-11-18T05:50:45;8.15;;;1.77;;
65684;SDS011;52405;50.844;-1.062;2022-11-18T05:53:12;7.40;;;1.17;;
65684;SDS011;52405;50.844;-1.062;2022-11-18T05:55:39;6.80;;;1.63;;
65684;SDS011;52405;50.844;-1.062;2022-11-18T05:58:06;8.30;;;1.10;;
65684;SDS011;52405;50.844;-1.062;2022-11-18T06:00:31;6.60;;;1.15;;
65684;SDS011;52405;50.844;-1.062;2022-11-18T06:02:57;7.45;;;1.65;;
65684;SDS011;52405;50.844;-1.062;2022-11-18T06:05:24;8.90;;;1.38;;
65684;SDS011;52405;50.844;-1.062;2022-11-18T06:07:50;13.07;;;2.47;;
65684;SDS011;52405;50.844;-1.062;2022-11-18T06:10:20;7.07;;;1.63;;
65684;SDS011;52405;50.844;-1.062;2022-11-18T06:12:50;13.20;;;1.75;;
65684;SDS011;52405;50.844;-1.062;2022-11-18T06:15:19;7.57;;;1.50;;
65684;SDS011;52405;50.844;-1.062;2022-11-18T06:17:48;9.52;;;2.00;;
65684;SDS011;52405;50.844;-1.062;2022-11-18T06:20:18;13.60;;;1.40;;
65684;SDS011;52405;50.844;-1.062;2022-11-18T06:22:45;9.40;;;2.47;;
65684;SDS011;52405;50.844;-1.062;2022-11-18T06:25:12;3.47;;;1.38;;
65684;SDS011;52405;50.844;-1.062;2022-11-18T06:27:38;6.97;;;1.75;;
65684;SDS011;52405;50.844;-1.062;2022-11-18T06:30:04;6.43;;;1.95;;
65684;SDS011;52405;50.844;-1.062;2022-11-18T06:32:30;11.18;;;1.77;;
65684;SDS011;52405;50.844;-1.062;2022-11-18T06:34:55;10.73;;;1.50;;
65684;SDS011;52405;50.844;-1.062;2022-11-18T06:37:21;10.65;;;2.50;;
65684;SDS011;52405;50.844;-1.062;2022-11-18T06:39:46;7.90;;;1.60;;
65684;SDS011;52405;50.844;-1.062;2022-11-18T06:42:12;12.13;;;2.20;;
65684;SDS011;52405;50.844;-1.062;2022-11-18T06:45:01;15.85;;;2.60;;
65684;SDS011;52405;50.844;-1.062;2022-11-18T06:47:27;11.25;;;1.83;;
65684;SDS011;52405;50.844;-1.062;2022-11-18T06:49:53;13.77;;;2.83;;
65684;SDS011;52405;50.844;-1.062;2022-11-18T06:52:18;10.85;;;2.38;;
65684;SDS011;52405;50.844;-1.062;2022-11-18T06:54:44;8.07;;;1.95;;
65684;SDS011;52405;50.844;-1.062;2022-11-18T06:57:09;7.65;;;1.52;;
65684;SDS011;52405;50.844;-1.062;2022-11-18T06:59:35;10.35;;;2.97;;
65684;SDS011;52405;50.844;-1.062;2022-11-18T07:02:00;7.45;;;1.83;;
65684;SDS011;52405;50.844;-1.062;2022-11-18T07:04:26;13.43;;;1.80;;
65684;SDS011;52405;50.844;-1.062;2022-11-18T07:06:51;9.50;;;1.80;;
65684;SDS011;52405;50.844;-1.062;2022-11-18T07:09:16;9.70;;;1.80;;
65684;SDS011;52405;50.844;-1.062;2022-11-18T07:11:42;16.08;;;3.00;;
65684;SDS011;52405;50.844;-1.062;2022-11-18T07:14:08;6.18;;;1.77;;
65684;SDS011;52405;50.844;-1.062;2022-11-18T07:16:34;8.35;;;2.50;;
65684;SDS011;52405;50.844;-1.062;2022-11-18T07:19:00;7.93;;;1.30;;
65684;SDS011;52405;50.844;-1.062;2022-11-18T07:21:26;15.00;;;2.20;;
65684;SDS011;52405;50.844;-1.062;2022-11-18T07:23:53;13.15;;;2.58;;
65684;SDS011;52405;50.844;-1.062;2022-11-18T07:26:20;17.10;;;3.13;;
65684;SDS011;52405;50.844;-1.062;2022-11-18T07:28:46;14.40;;;2.05;;
65684;SDS011;52405;50.844;-1.062;2022-11-18T07:31:13;10.23;;;2.20;;
65684;SDS011;52405;50.844;-1.062;2022-11-18T07:33:40;11.23;;;2.95;;
65684;SDS011;52405;50.844;-1.062;2022-11-18T07:38:34;14.82;;;2.78;;
65684;SDS011;52405;50.844;-1.062;2022-11-18T07:43:30;8.73;;;2.10;;
65684;SDS011;52405;50.844;-1.062;2022-11-18T07:45:56;19.23;;;3.28;;
65684;SDS011;52405;50.844;-1.062;2022-11-18T07:48:21;15.32;;;3.42;;
65684;SDS011;52405;50.844;-1.062;2022-11-18T07:50:46;13.73;;;2.30;;
65684;SDS011;52405;50.844;-1.062;2022-11-18T07:53:12;11.35;;;3.38;;
65684;SDS011;52405;50.844;-1.062;2022-11-18T07:55:37;12.02;;;2.63;;
65684;SDS011;52405;50.844;-1.062;2022-11-18T07:58:03;7.32;;;1.98;;
65684;SDS011;52405;50.844;-1.062;2022-11-18T08:00:28;12.85;;;2.38;;
65684;SDS011;52405;50.844;-1.062;2022-11-18T08:02:54;7.95;;;2.05;;
65684;SDS011;52405;50.844;-1.062;2022-11-18T08:05:19;10.73;;;2.40;;
65684;SDS011;52405;50.844;-1.062;2022-11-18T08:07:45;7.50;;;1.40;;
65684;SDS011;52405;50.844;-1.062;2022-11-18T08:10:10;10.30;;;1.90;;
65684;SDS011;52405;50.844;-1.062;2022-11-18T08:12:39;11.90;;;2.42;;
65684;SDS011;52405;50.844;-1.062;2022-11-18T08:15:04;6.20;;;1.85;;
65684;SDS011;52405;50.844;-1.062;2022-11-18T08:17:31;9.40;;;1.63;;
65684;SDS011;52405;50.844;-1.062;2022-11-18T08:19:57;11.05;;;2.08;;
65684;SDS011;52405;50.844;-1.062;2022-11-18T08:22:22;6.97;;;1.67;;
65684;SDS011;52405;50.844;-1.062;2022-11-18T08:24:48;7.47;;;1.77;;
65684;SDS011;52405;50.844;-1.062;2022-11-18T08:27:13;7.03;;;1.63;;
65684;SDS011;52405;50.844;-1.062;2022-11-18T08:29:39;6.15;;;1.98;;
65684;SDS011;52405;50.844;-1.062;2022-11-18T08:32:04;12.25;;;2.65;;
65684;SDS011;52405;50.844;-1.062;2022-11-18T08:34:30;9.07;;;2.40;;
65684;SDS011;52405;50.844;-1.062;2022-11-18T08:36:56;10.60;;;2.22;;
65684;SDS011;52405;50.844;-1.062;2022-11-18T08:39:21;7.85;;;2.20;;
65684;SDS011;52405;50.844;-1.062;2022-11-18T08:41:47;6.85;;;1.52;;
65684;SDS011;52405;50.844;-1.062;2022-11-18T08:44:13;10.80;;;1.70;;
65684;SDS011;52405;50.844;-1.062;2022-11-18T08:46:40;6.72;;;1.55;;
65684;SDS011;52405;50.844;-1.062;2022-11-18T08:49:08;12.82;;;2.83;;
65684;SDS011;52405;50.844;-1.062;2022-11-18T08:51:34;7.40;;;1.92;;
65684;SDS011;52405;50.844;-1.062;2022-11-18T08:53:59;9.75;;;2.83;;
65684;SDS011;52405;50.844;-1.062;2022-11-18T08:56:25;10.35;;;1.50;;
65684;SDS011;52405;50.844;-1.062;2022-11-18T08:58:51;7.10;;;1.65;;
65684;SDS011;52405;50.844;-1.062;2022-11-18T09:01:16;6.85;;;2.08;;
65684;SDS011;52405;50.844;-1.062;2022-11-18T09:03:42;19.33;;;2.90;;
65684;SDS011;52405;50.844;-1.062;2022-11-18T09:08:38;5.97;;;1.38;;
65684;SDS011;52405;50.844;-1.062;2022-11-18T09:11:08;4.63;;;1.38;;
65684;SDS011;52405;50.844;-1.062;2022-11-18T09:13:35;7.28;;;1.35;;
65684;SDS011;52405;50.844;-1.062;2022-11-18T09:16:01;7.65;;;1.70;;
65684;SDS011;52405;50.844;-1.062;2022-11-18T09:18:27;6.32;;;1.17;;
65684;SDS011;52405;50.844;-1.062;2022-11-18T09:20:57;3.85;;;1.50;;
65684;SDS011;52405;50.844;-1.062;2022-11-18T09:23:24;4.75;;;1.15;;
65684;SDS011;52405;50.844;-1.062;2022-11-18T09:26:01;5.53;;;1.55;;
65684;SDS011;52405;50.844;-1.062;2022-11-18T09:28:28;4.97;;;1.30;;
65684;SDS011;52405;50.844;-1.062;2022-11-18T09:30:54;9.77;;;1.98;;
65684;SDS011;52405;50.844;-1.062;2022-11-18T09:33:20;6.63;;;0.90;;
65684;SDS011;52405;50.844;-1.062;2022-11-18T09:35:46;5.65;;;1.63;;
65684;SDS011;52405;50.844;-1.062;2022-11-18T09:38:12;3.30;;;1.45;;
65684;SDS011;52405;50.844;-1.062;2022-11-18T09:43:46;6.43;;;1.95;;
65684;SDS011;52405;50.844;-1.062;2022-11-18T09:49:12;6.07;;;1.38;;
65684;SDS011;52405;50.844;-1.062;2022-11-18T09:52:04;3.38;;;1.10;;
65684;SDS011;52405;50.844;-1.062;2022-11-18T09:54:35;3.15;;;0.82;;
65684;SDS011;52405;50.844;-1.062;2022-11-18T09:57:02;4.47;;;0.73;;
65684;SDS011;52405;50.844;-1.062;2022-11-18T10:04:41;6.05;;;1.00;;
65684;SDS011;52405;50.844;-1.062;2022-11-18T10:07:20;4.25;;;0.75;;
65684;SDS011;52405;50.844;-1.062;2022-11-18T10:09:51;2.50;;;1.02;;
65684;SDS011;52405;50.844;-1.062;2022-11-18T10:15:20;0.95;;;0.60;;
65684;SDS011;52405;50.844;-1.062;2022-11-18T10:24:00;1.98;;;0.75;;
65684;SDS011;52405;50.844;-1.062;2022-11-18T10:26:32;6.05;;;0.80;;
65684;SDS011;52405;50.844;-1.062;2022-11-18T10:28:59;2.80;;;0.93;;
65684;SDS011;52405;50.844;-1.062;2022-11-18T10:31:25;2.45;;;1.17;;
65684;SDS011;52405;50.844;-1.062;2022-11-18T10:33:57;2.65;;;0.70;;
65684;SDS011;52405;50.844;-1.062;2022-11-18T10:36:27;1.08;;;0.70;;
65684;SDS011;52405;50.844;-1.062;2022-11-18T10:39:08;2.25;;;0.77;;
65684;SDS011;52405;50.844;-1.062;2022-11-18T10:41:40;5.07;;;1.02;;
65684;SDS011;52405;50.844;-1.062;2022-11-18T10:46:52;4.68;;;0.98;;
65684;SDS011;52405;50.844;-1.062;2022-11-18T10:49:18;3.97;;;1.00;;
65684;SDS011;52405;50.844;-1.062;2022-11-18T10:51:44;3.42;;;1.23;;
65684;SDS011;52405;50.844;-1.062;2022-11-18T10:54:18;1.70;;;1.10;;
65684;SDS011;52405;50.844;-1.062;2022-11-18T10:56:49;3.40;;;1.52;;
65684;SDS011;52405;50.844;-1.062;2022-11-18T10:59:25;2.83;;;1.27;;
65684;SDS011;52405;50.844;-1.062;2022-11-18T11:04:43;1.77;;;0.65;;
65684;SDS011;52405;50.844;-1.062;2022-11-18T11:12:30;4.70;;;0.98;;
65684;SDS011;52405;50.844;-1.062;2022-11-18T11:15:18;1.88;;;0.90;;
65684;SDS011;52405;50.844;-1.062;2022-11-18T11:18:05;1.52;;;0.65;;
65684;SDS011;52405;50.844;-1.062;2022-11-18T11:20:57;2.28;;;1.05;;
65684;SDS011;52405;50.844;-1.062;2022-11-18T11:23:23;2.30;;;1.42;;
65684;SDS011;52405;50.844;-1.062;2022-11-18T11:25:59;4.78;;;0.70;;
65684;SDS011;52405;50.844;-1.062;2022-11-18T11:28:57;5.70;;;1.23;;
65684;SDS011;52405;50.844;-1.062;2022-11-18T11:56:37;5.20;;;1.10;;
65684;SDS011;52405;50.844;-1.062;2022-11-18T12:04:41;3.28;;;0.73;;
65684;SDS011;52405;50.844;-1.062;2022-11-18T12:07:28;3.08;;;0.60;;
65684;SDS011;52405;50.844;-1.062;2022-11-18T12:15:53;1.55;;;0.70;;
65684;SDS011;52405;50.844;-1.062;2022-11-18T12:26:41;2.47;;;0.80;;
65684;SDS011;52405;50.844;-1.062;2022-11-18T12:31:44;6.23;;;1.70;;
65684;SDS011;52405;50.844;-1.062;2022-11-18T12:34:18;4.70;;;0.90;;
65684;SDS011;52405;50.844;-1.062;2022-11-18T12:36:51;4.28;;;1.33;;
65684;SDS011;52405;50.844;-1.062;2022-11-18T12:44:33;2.03;;;0.70;;
65684;SDS011;52405;50.844;-1.062;2022-11-18T12:47:00;6.63;;;1.38;;
65684;SDS011;52405;50.844;-1.062;2022-11-18T12:51:56;2.72;;;1.15;;
65684;SDS011;52405;50.844;-1.062;2022-11-18T12:56:48;3.78;;;1.08;;
65684;SDS011;52405;50.844;-1.062;2022-11-18T12:59:15;2.50;;;1.15;;
65684;SDS011;52405;50.844;-1.062;2022-11-18T13:01:41;3.03;;;0.98;;
65684;SDS011;52405;50.844;-1.062;2022-11-18T13:04:08;4.72;;;1.13;;
65684;SDS011;52405;50.844;-1.062;2022-11-18T13:06:38;2.30;;;1.02;;
65684;SDS011;52405;50.844;-1.062;2022-11-18T13:09:19;5.10;;;1.65;;
65684;SDS011;52405;50.844;-1.062;2022-11-18T13:11:50;8.18;;;1.33;;
65684;SDS011;52405;50.844;-1.062;2022-11-18T13:14:31;7.22;;;0.82;;
65684;SDS011;52405;50.844;-1.062;2022-11-18T13:20:34;8.00;;;1.50;;
65684;SDS011;52405;50.844;-1.062;2022-11-18T13:25:52;6.80;;;1.30;;
65684;SDS011;52405;50.844;-1.062;2022-11-18T13:34:07;4.70;;;1.15;;
65684;SDS011;52405;50.844;-1.062;2022-11-18T13:36:47;4.55;;;1.23;;
65684;SDS011;52405;50.844;-1.062;2022-11-18T13:52:39;4.35;;;1.00;;
65684;SDS011;52405;50.844;-1.062;2022-11-18T13:55:12;8.05;;;1.50;;
65684;SDS011;52405;50.844;-1.062;2022-11-18T13:57:47;3.63;;;1.27;;
65684;SDS011;52405;50.844;-1.062;2022-11-18T14:00:27;5.47;;;1.42;;
65684;SDS011;52405;50.844;-1.062;2022-11-18T14:02:57;4.13;;;1.45;;
65684;SDS011;52405;50.844;-1.062;2022-11-18T14:05:26;2.78;;;1.17;;
65684;SDS011;52405;50.844;-1.062;2022-11-18T14:07:57;5.70;;;1.92;;
65684;SDS011;52405;50.844;-1.062;2022-11-18T14:10:31;5.03;;;1.55;;
65684;SDS011;52405;50.844;-1.062;2022-11-18T14:13:11;2.30;;;1.30;;
65684;SDS011;52405;50.844;-1.062;2022-11-18T14:15:41;4.00;;;1.05;;
65684;SDS011;52405;50.844;-1.062;2022-11-18T14:18:15;4.97;;;1.33;;
65684;SDS011;52405;50.844;-1.062;2022-11-18T14:20:48;3.67;;;0.85;;
65684;SDS011;52405;50.844;-1.062;2022-11-18T14:23:15;4.30;;;0.90;;
65684;SDS011;52405;50.844;-1.062;2022-11-18T14:25:42;3.83;;;1.42;;
65684;SDS011;52405;50.844;-1.062;2022-11-18T14:30:40;5.10;;;1.40;;
65684;SDS011;52405;50.844;-1.062;2022-11-18T14:33:11;5.10;;;1.40;;
65684;SDS011;52405;50.844;-1.062;2022-11-18T14:35:43;3.70;;;1.52;;
65684;SDS011;52405;50.844;-1.062;2022-11-18T14:38:13;6.88;;;2.00;;
65684;SDS011;52405;50.844;-1.062;2022-11-18T14:40:41;3.47;;;1.10;;
65684;SDS011;52405;50.844;-1.062;2022-11-18T14:43:06;6.25;;;1.35;;
65684;SDS011;52405;50.844;-1.062;2022-11-18T14:45:33;9.95;;;1.85;;
65684;SDS011;52405;50.844;-1.062;2022-11-18T14:47:59;3.22;;;1.10;;
65684;SDS011;52405;50.844;-1.062;2022-11-18T14:50:24;3.40;;;1.50;;
65684;SDS011;52405;50.844;-1.062;2022-11-18T14:52:50;1.52;;;0.90;;
65684;SDS011;52405;50.844;-1.062;2022-11-18T14:55:15;5.35;;;2.17;;
65684;SDS011;52405;50.844;-1.062;2022-11-18T14:57:41;2.97;;;0.80;;
65684;SDS011;52405;50.844;-1.062;2022-11-18T15:00:09;1.92;;;0.73;;
65684;SDS011;52405;50.844;-1.062;2022-11-18T15:02:38;7.68;;;1.40;;
65684;SDS011;52405;50.844;-1.062;2022-11-18T15:05:04;6.00;;;1.85;;
65684;SDS011;52405;50.844;-1.062;2022-11-18T15:07:30;3.70;;;0.80;;
65684;SDS011;52405;50.844;-1.062;2022-11-18T15:09:55;10.52;;;2.00;;
65684;SDS011;52405;50.844;-1.062;2022-11-18T15:12:21;6.70;;;1.58;;
65684;SDS011;52405;50.844;-1.062;2022-11-18T15:14:47;1.75;;;0.80;;
65684;SDS011;52405;50.844;-1.062;2022-11-18T15:17:13;1.88;;;0.60;;
65684;SDS011;52405;50.844;-1.062;2022-11-18T15:19:38;3.30;;;0.77;;
65684;SDS011;52405;50.844;-1.062;2022-11-18T15:22:05;5.18;;;1.23;;
65684;SDS011;52405;50.844;-1.062;2022-11-18T15:24:31;4.25;;;0.68;;
65684;SDS011;52405;50.844;-1.062;2022-11-18T15:26:57;5.03;;;1.65;;
65684;SDS011;52405;50.844;-1.062;2022-11-18T15:29:23;11.32;;;1.27;;
65684;SDS011;52405;50.844;-1.062;2022-11-18T15:31:50;8.25;;;1.40;;
65684;SDS011;52405;50.844;-1.062;2022-11-18T15:34:16;5.55;;;1.75;;
65684;SDS011;52405;50.844;-1.062;2022-11-18T15:36:44;2.53;;;1.42;;
65684;SDS011;52405;50.844;-1.062;2022-11-18T15:39:09;4.75;;;1.23;;
65684;SDS011;52405;50.844;-1.062;2022-11-18T15:41:35;4.10;;;1.10;;
65684;SDS011;52405;50.844;-1.062;2022-11-18T15:44:02;3.35;;;1.20;;
65684;SDS011;52405;50.844;-1.062;2022-11-18T15:46:28;3.40;;;1.42;;
65684;SDS011;52405;50.844;-1.062;2022-11-18T15:48:54;6.45;;;1.02;;
65684;SDS011;52405;50.844;-1.062;2022-11-18T15:51:23;8.18;;;1.88;;
65684;SDS011;52405;50.844;-1.062;2022-11-18T15:53:50;15.05;;;2.85;;
65684;SDS011;52405;50.844;-1.062;2022-11-18T15:58:51;4.60;;;1.55;;
65684;SDS011;52405;50.844;-1.062;2022-11-18T16:01:20;7.82;;;2.80;;
65684;SDS011;52405;50.844;-1.062;2022-11-18T16:03:46;15.65;;;2.97;;
65684;SDS011;52405;50.844;-1.062;2022-11-18T16:06:12;6.57;;;1.63;;
65684;SDS011;52405;50.844;-1.062;2022-11-18T16:08:37;9.73;;;1.95;;
65684;SDS011;52405;50.844;-1.062;2022-11-18T16:11:02;6.57;;;2.05;;
65684;SDS011;52405;50.844;-1.062;2022-11-18T16:13:46;8.13;;;2.08;;
65684;SDS011;52405;50.844;-1.062;2022-11-18T16:16:22;4.35;;;1.20;;
65684;SDS011;52405;50.844;-1.062;2022-11-18T16:18:52;3.40;;;1.30;;
65684;SDS011;52405;50.844;-1.062;2022-11-18T16:21:19;7.40;;;2.03;;
65684;SDS011;52405;50.844;-1.062;2022-11-18T16:23:45;12.50;;;2.10;;
65684;SDS011;52405;50.844;-1.062;2022-11-18T16:26:10;7.93;;;2.17;;
65684;SDS011;52405;50.844;-1.062;2022-11-18T16:28:36;8.48;;;2.28;;
65684;SDS011;52405;50.844;-1.062;2022-11-18T16:31:03;6.82;;;2.03;;
65684;SDS011;52405;50.844;-1.062;2022-11-18T16:33:48;9.40;;;2.78;;
65684;SDS011;52405;50.844;-1.062;2022-11-18T16:36:13;5.55;;;2.13;;
65684;SDS011;52405;50.844;-1.062;2022-11-18T16:38:39;10.50;;;2.47;;
65684;SDS011;52405;50.844;-1.062;2022-11-18T16:41:05;5.28;;;2.47;;
65684;SDS011;52405;50.844;-1.062;2022-11-18T16:43:50;9.57;;;2.53;;
65684;SDS011;52405;50.844;-1.062;2022-11-18T16:46:16;11.13;;;3.97;;
65684;SDS011;52405;50.844;-1.062;2022-11-18T16:48:42;13.18;;;4.45;;
65684;SDS011;52405;50.844;-1.062;2022-11-18T16:51:20;6.22;;;3.20;;
65684;SDS011;52405;50.844;-1.062;2022-11-18T16:53:54;7.82;;;2.33;;
65684;SDS011;52405;50.844;-1.062;2022-11-18T16:56:23;8.98;;;2.72;;
65684;SDS011;52405;50.844;-1.062;2022-11-18T16:58:54;8.85;;;2.92;;
65684;SDS011;52405;50.844;-1.062;2022-11-18T17:01:22;9.23;;;3.70;;
65684;SDS011;52405;50.844;-1.062;2022-11-18T17:03:49;6.93;;;3.08;;
65684;SDS011;52405;50.844;-1.062;2022-11-18T17:06:16;10.07;;;3.78;;
65684;SDS011;52405;50.844;-1.062;2022-11-18T17:08:42;8.85;;;3.78;;
65684;SDS011;52405;50.844;-1.062;2022-11-18T17:11:08;10.23;;;4.32;;
65684;SDS011;52405;50.844;-1.062;2022-11-18T17:13:35;8.98;;;4.00;;
65684;SDS011;52405;50.844;-1.062;2022-11-18T17:16:08;16.02;;;6.35;;
65684;SDS011;52405;50.844;-1.062;2022-11-18T17:18:39;12.80;;;5.38;;
65684;SDS011;52405;50.844;-1.062;2022-11-18T17:21:07;17.13;;;7.22;;
65684;SDS011;52405;50.844;-1.062;2022-11-18T17:23:38;12.15;;;5.40;;
65684;SDS011;52405;50.844;-1.062;2022-11-18T17:26:04;17.20;;;6.13;;
65684;SDS011;52405;50.844;-1.062;2022-11-18T17:28:31;9.02;;;4.57;;
65684;SDS011;52405;50.844;-1.062;2022-11-18T17:31:03;9.05;;;4.03;;